sensor_id;sensor_type;location;lat;lon;timestamp;P1;durP1;ratioP1;P2;durP2;ratioP2
27618;SDS011;15039;50.830;4.730;2023-04-24T00:01:30;12.65;;;8.02;;
27618;SDS011;15039;50.830;4.730;2023-04-24T00:03:56;9.50;;;7.13;;
27618;SDS011;15039;50.830;4.730;2023-04-24T00:06:24;12.25;;;7.75;;
27618;SDS011;15039;50.830;4.730;2023-04-24T00:08:59;10.07;;;7.43;;
27618;SDS011;15039;50.830;4.730;2023-04-24T00:11:26;11.02;;;7.30;;
27618;SDS011;15039;50.830;4.730;2023-04-24T00:13:52;14.50;;;8.07;;
27618;SDS011;15039;50.830;4.730;2023-04-24T00:16:18;12.80;;;8.10;;
27618;SDS011;15039;50.830;4.730;2023-04-24T00:18:45;10.43;;;7.50;;
27618;SDS011;15039;50.830;4.730;2023-04-24T00:21:12;12.85;;;7.32;;
27618;SDS011;15039;50.830;4.730;2023-04-24T00:23:38;12.25;;;7.70;;
27618;SDS011;15039;50.830;4.730;2023-04-24T00:26:04;14.20;;;8.68;;
27618;SDS011;15039;50.830;4.730;2023-04-24T00:28:30;11.25;;;7.32;;
27618;SDS011;15039;50.830;4.730;2023-04-24T00:30:55;10.05;;;7.30;;
27618;SDS011;15039;50.830;4.730;2023-04-24T00:33:21;9.60;;;7.60;;
27618;SDS011;15039;50.830;4.730;2023-04-24T00:35:47;11.05;;;7.10;;
27618;SDS011;15039;50.830;4.730;2023-04-24T00:38:12;12.38;;;7.82;;
27618;SDS011;15039;50.830;4.730;2023-04-24T00:40:38;12.18;;;7.90;;
27618;SDS011;15039;50.830;4.730;2023-04-24T00:43:04;14.68;;;7.63;;
27618;SDS011;15039;50.830;4.730;2023-04-24T00:45:30;15.38;;;7.78;;
27618;SDS011;15039;50.830;4.730;2023-04-24T00:47:56;11.80;;;7.32;;
27618;SDS011;15039;50.830;4.730;2023-04-24T00:50:23;9.43;;;7.03;;
27618;SDS011;15039;50.830;4.730;2023-04-24T00:52:50;15.63;;;7.18;;
27618;SDS011;15039;50.830;4.730;2023-04-24T00:55:16;14.18;;;8.05;;
27618;SDS011;15039;50.830;4.730;2023-04-24T00:57:42;11.10;;;7.65;;
27618;SDS011;15039;50.830;4.730;2023-04-24T01:00:09;15.63;;;9.45;;
27618;SDS011;15039;50.830;4.730;2023-04-24T01:02:36;9.15;;;7.18;;
27618;SDS011;15039;50.830;4.730;2023-04-24T01:05:06;11.40;;;7.65;;
27618;SDS011;15039;50.830;4.730;2023-04-24T01:07:33;15.18;;;8.55;;
27618;SDS011;15039;50.830;4.730;2023-04-24T01:09:59;12.32;;;7.97;;
27618;SDS011;15039;50.830;4.730;2023-04-24T01:12:25;11.18;;;7.65;;
27618;SDS011;15039;50.830;4.730;2023-04-24T01:14:51;13.63;;;7.88;;
27618;SDS011;15039;50.830;4.730;2023-04-24T01:17:17;13.32;;;7.95;;
27618;SDS011;15039;50.830;4.730;2023-04-24T01:19:42;11.55;;;7.57;;
27618;SDS011;15039;50.830;4.730;2023-04-24T01:22:14;8.57;;;7.07;;
27618;SDS011;15039;50.830;4.730;2023-04-24T01:24:41;13.15;;;7.47;;
27618;SDS011;15039;50.830;4.730;2023-04-24T01:27:08;10.52;;;7.03;;
27618;SDS011;15039;50.830;4.730;2023-04-24T01:29:35;11.68;;;7.60;;
27618;SDS011;15039;50.830;4.730;2023-04-24T01:32:01;10.70;;;7.07;;
27618;SDS011;15039;50.830;4.730;2023-04-24T01:34:28;11.40;;;7.50;;
27618;SDS011;15039;50.830;4.730;2023-04-24T01:36:53;12.25;;;8.60;;
27618;SDS011;15039;50.830;4.730;2023-04-24T01:39:19;16.05;;;8.50;;
27618;SDS011;15039;50.830;4.730;2023-04-24T01:41:45;10.73;;;7.95;;
27618;SDS011;15039;50.830;4.730;2023-04-24T01:44:12;11.63;;;8.93;;
27618;SDS011;15039;50.830;4.730;2023-04-24T01:46:38;14.35;;;8.85;;
27618;SDS011;15039;50.830;4.730;2023-04-24T01:49:03;16.50;;;9.30;;
27618;SDS011;15039;50.830;4.730;2023-04-24T01:51:29;14.27;;;9.55;;
27618;SDS011;15039;50.830;4.730;2023-04-24T01:53:55;9.70;;;8.15;;
27618;SDS011;15039;50.830;4.730;2023-04-24T01:56:21;15.60;;;9.07;;
27618;SDS011;15039;50.830;4.730;2023-04-24T01:58:47;13.43;;;8.90;;
27618;SDS011;15039;50.830;4.730;2023-04-24T02:01:18;12.38;;;8.68;;
27618;SDS011;15039;50.830;4.730;2023-04-24T02:03:46;10.82;;;8.43;;
27618;SDS011;15039;50.830;4.730;2023-04-24T02:06:12;11.70;;;8.50;;
27618;SDS011;15039;50.830;4.730;2023-04-24T02:08:40;12.32;;;9.20;;
27618;SDS011;15039;50.830;4.730;2023-04-24T02:11:06;11.52;;;8.45;;
27618;SDS011;15039;50.830;4.730;2023-04-24T02:13:31;13.93;;;8.95;;
27618;SDS011;15039;50.830;4.730;2023-04-24T02:16:00;10.80;;;8.13;;
27618;SDS011;15039;50.830;4.730;2023-04-24T02:18:26;12.98;;;9.35;;
27618;SDS011;15039;50.830;4.730;2023-04-24T02:20:52;16.70;;;10.10;;
27618;SDS011;15039;50.830;4.730;2023-04-24T02:23:18;15.27;;;9.93;;
27618;SDS011;15039;50.830;4.730;2023-04-24T02:25:44;11.98;;;9.43;;
27618;SDS011;15039;50.830;4.730;2023-04-24T02:28:12;13.40;;;10.00;;
27618;SDS011;15039;50.830;4.730;2023-04-24T02:30:38;13.95;;;10.20;;
27618;SDS011;15039;50.830;4.730;2023-04-24T02:33:04;11.63;;;10.40;;
27618;SDS011;15039;50.830;4.730;2023-04-24T02:35:30;17.70;;;11.13;;
27618;SDS011;15039;50.830;4.730;2023-04-24T02:37:55;17.10;;;12.38;;
27618;SDS011;15039;50.830;4.730;2023-04-24T02:40:21;13.40;;;11.25;;
27618;SDS011;15039;50.830;4.730;2023-04-24T02:42:48;15.85;;;11.50;;
27618;SDS011;15039;50.830;4.730;2023-04-24T02:45:13;16.10;;;12.02;;
27618;SDS011;15039;50.830;4.730;2023-04-24T02:47:41;13.35;;;10.75;;
27618;SDS011;15039;50.830;4.730;2023-04-24T02:50:07;16.73;;;11.25;;
27618;SDS011;15039;50.830;4.730;2023-04-24T02:52:33;16.90;;;11.25;;
27618;SDS011;15039;50.830;4.730;2023-04-24T02:54:59;13.30;;;10.77;;
27618;SDS011;15039;50.830;4.730;2023-04-24T02:57:24;15.15;;;10.15;;
27618;SDS011;15039;50.830;4.730;2023-04-24T02:59:50;17.35;;;10.02;;
27618;SDS011;15039;50.830;4.730;2023-04-24T03:02:16;11.35;;;10.13;;
27618;SDS011;15039;50.830;4.730;2023-04-24T03:04:41;12.32;;;9.95;;
27618;SDS011;15039;50.830;4.730;2023-04-24T03:07:08;15.05;;;10.40;;
27618;SDS011;15039;50.830;4.730;2023-04-24T03:09:34;12.65;;;9.38;;
27618;SDS011;15039;50.830;4.730;2023-04-24T03:12:00;14.10;;;9.55;;
27618;SDS011;15039;50.830;4.730;2023-04-24T03:14:31;16.08;;;9.38;;
27618;SDS011;15039;50.830;4.730;2023-04-24T03:16:57;12.30;;;8.60;;
27618;SDS011;15039;50.830;4.730;2023-04-24T03:19:23;10.98;;;8.70;;
27618;SDS011;15039;50.830;4.730;2023-04-24T03:21:49;10.35;;;8.43;;
27618;SDS011;15039;50.830;4.730;2023-04-24T03:24:15;11.07;;;7.88;;
27618;SDS011;15039;50.830;4.730;2023-04-24T03:26:40;9.48;;;7.70;;
27618;SDS011;15039;50.830;4.730;2023-04-24T03:29:06;11.30;;;8.50;;
27618;SDS011;15039;50.830;4.730;2023-04-24T03:31:32;11.38;;;8.25;;
27618;SDS011;15039;50.830;4.730;2023-04-24T03:33:58;11.00;;;8.07;;
27618;SDS011;15039;50.830;4.730;2023-04-24T03:36:24;11.23;;;8.95;;
27618;SDS011;15039;50.830;4.730;2023-04-24T03:38:51;10.63;;;8.25;;
27618;SDS011;15039;50.830;4.730;2023-04-24T03:41:16;11.75;;;8.43;;
27618;SDS011;15039;50.830;4.730;2023-04-24T03:43:42;10.75;;;8.82;;
27618;SDS011;15039;50.830;4.730;2023-04-24T03:46:09;10.75;;;7.80;;
27618;SDS011;15039;50.830;4.730;2023-04-24T03:48:37;13.48;;;8.05;;
27618;SDS011;15039;50.830;4.730;2023-04-24T03:51:02;12.90;;;7.85;;
27618;SDS011;15039;50.830;4.730;2023-04-24T03:53:29;11.35;;;8.45;;
27618;SDS011;15039;50.830;4.730;2023-04-24T03:55:55;13.73;;;8.82;;
27618;SDS011;15039;50.830;4.730;2023-04-24T03:58:20;12.02;;;8.70;;
27618;SDS011;15039;50.830;4.730;2023-04-24T04:00:46;10.02;;;8.43;;
27618;SDS011;15039;50.830;4.730;2023-04-24T04:03:13;11.20;;;7.93;;
27618;SDS011;15039;50.830;4.730;2023-04-24T04:05:39;10.10;;;7.55;;
27618;SDS011;15039;50.830;4.730;2023-04-24T04:08:05;12.45;;;8.40;;
27618;SDS011;15039;50.830;4.730;2023-04-24T04:10:31;9.52;;;7.50;;
27618;SDS011;15039;50.830;4.730;2023-04-24T04:12:58;9.57;;;7.82;;
27618;SDS011;15039;50.830;4.730;2023-04-24T04:15:25;11.18;;;8.05;;
27618;SDS011;15039;50.830;4.730;2023-04-24T04:17:50;8.68;;;7.03;;
27618;SDS011;15039;50.830;4.730;2023-04-24T04:20:16;8.10;;;7.15;;
27618;SDS011;15039;50.830;4.730;2023-04-24T04:22:42;8.55;;;6.45;;
27618;SDS011;15039;50.830;4.730;2023-04-24T04:25:11;7.43;;;5.75;;
27618;SDS011;15039;50.830;4.730;2023-04-24T04:27:38;6.07;;;5.35;;
27618;SDS011;15039;50.830;4.730;2023-04-24T04:30:06;6.20;;;5.55;;
27618;SDS011;15039;50.830;4.730;2023-04-24T04:32:34;6.28;;;5.63;;
27618;SDS011;15039;50.830;4.730;2023-04-24T04:35:00;5.97;;;5.32;;
27618;SDS011;15039;50.830;4.730;2023-04-24T04:39:57;6.22;;;4.80;;
27618;SDS011;15039;50.830;4.730;2023-04-24T04:42:24;7.25;;;4.45;;
27618;SDS011;15039;50.830;4.730;2023-04-24T04:44:51;6.95;;;4.75;;
27618;SDS011;15039;50.830;4.730;2023-04-24T04:47:18;6.18;;;5.15;;
27618;SDS011;15039;50.830;4.730;2023-04-24T04:49:46;5.38;;;4.75;;
27618;SDS011;15039;50.830;4.730;2023-04-24T04:52:13;8.38;;;4.93;;
27618;SDS011;15039;50.830;4.730;2023-04-24T04:54:39;7.53;;;4.68;;
27618;SDS011;15039;50.830;4.730;2023-04-24T04:57:05;5.25;;;4.15;;
27618;SDS011;15039;50.830;4.730;2023-04-24T04:59:34;5.82;;;4.40;;
27618;SDS011;15039;50.830;4.730;2023-04-24T05:02:00;6.28;;;4.80;;
27618;SDS011;15039;50.830;4.730;2023-04-24T05:04:26;5.45;;;4.10;;
27618;SDS011;15039;50.830;4.730;2023-04-24T05:06:55;5.85;;;4.85;;
27618;SDS011;15039;50.830;4.730;2023-04-24T05:09:24;6.00;;;4.55;;
27618;SDS011;15039;50.830;4.730;2023-04-24T05:11:52;5.88;;;4.65;;
27618;SDS011;15039;50.830;4.730;2023-04-24T05:14:18;5.03;;;4.45;;
27618;SDS011;15039;50.830;4.730;2023-04-24T05:17:07;4.97;;;4.47;;
27618;SDS011;15039;50.830;4.730;2023-04-24T05:19:51;6.03;;;4.38;;
27618;SDS011;15039;50.830;4.730;2023-04-24T05:22:52;9.18;;;5.50;;
27618;SDS011;15039;50.830;4.730;2023-04-24T05:25:21;8.30;;;5.03;;
27618;SDS011;15039;50.830;4.730;2023-04-24T05:27:59;6.65;;;5.53;;
27618;SDS011;15039;50.830;4.730;2023-04-24T05:30:32;8.40;;;6.28;;
27618;SDS011;15039;50.830;4.730;2023-04-24T05:32:58;6.97;;;5.70;;
27618;SDS011;15039;50.830;4.730;2023-04-24T05:38:43;7.95;;;6.13;;
27618;SDS011;15039;50.830;4.730;2023-04-24T05:41:42;8.70;;;6.03;;
27618;SDS011;15039;50.830;4.730;2023-04-24T05:44:12;11.32;;;6.63;;
27618;SDS011;15039;50.830;4.730;2023-04-24T05:46:57;10.55;;;6.47;;
27618;SDS011;15039;50.830;4.730;2023-04-24T05:49:32;6.95;;;6.13;;
27618;SDS011;15039;50.830;4.730;2023-04-24T05:52:00;8.90;;;6.80;;
27618;SDS011;15039;50.830;4.730;2023-04-24T05:54:28;9.55;;;6.85;;
27618;SDS011;15039;50.830;4.730;2023-04-24T05:56:53;9.38;;;6.35;;
27618;SDS011;15039;50.830;4.730;2023-04-24T05:59:20;7.55;;;6.47;;
27618;SDS011;15039;50.830;4.730;2023-04-24T06:01:46;10.70;;;6.55;;
27618;SDS011;15039;50.830;4.730;2023-04-24T06:04:12;8.68;;;7.05;;
27618;SDS011;15039;50.830;4.730;2023-04-24T06:06:40;9.47;;;6.70;;
27618;SDS011;15039;50.830;4.730;2023-04-24T06:09:06;7.93;;;6.68;;
27618;SDS011;15039;50.830;4.730;2023-04-24T06:11:32;12.07;;;7.40;;
27618;SDS011;15039;50.830;4.730;2023-04-24T06:14:04;9.13;;;7.43;;
27618;SDS011;15039;50.830;4.730;2023-04-24T06:16:31;10.00;;;7.30;;
27618;SDS011;15039;50.830;4.730;2023-04-24T06:18:57;10.05;;;7.10;;
27618;SDS011;15039;50.830;4.730;2023-04-24T06:21:23;10.48;;;7.18;;
27618;SDS011;15039;50.830;4.730;2023-04-24T06:23:48;7.85;;;7.03;;
27618;SDS011;15039;50.830;4.730;2023-04-24T06:26:14;10.55;;;7.10;;
27618;SDS011;15039;50.830;4.730;2023-04-24T06:28:40;10.27;;;7.70;;
27618;SDS011;15039;50.830;4.730;2023-04-24T06:31:06;10.50;;;7.75;;
27618;SDS011;15039;50.830;4.730;2023-04-24T06:33:32;10.80;;;8.13;;
27618;SDS011;15039;50.830;4.730;2023-04-24T06:35:57;12.57;;;8.32;;
27618;SDS011;15039;50.830;4.730;2023-04-24T06:38:23;11.68;;;8.63;;
27618;SDS011;15039;50.830;4.730;2023-04-24T06:40:49;10.88;;;8.48;;
27618;SDS011;15039;50.830;4.730;2023-04-24T06:43:15;13.63;;;8.13;;
27618;SDS011;15039;50.830;4.730;2023-04-24T06:45:40;11.25;;;8.30;;
27618;SDS011;15039;50.830;4.730;2023-04-24T06:48:08;16.00;;;8.93;;
27618;SDS011;15039;50.830;4.730;2023-04-24T06:50:50;11.43;;;7.82;;
27618;SDS011;15039;50.830;4.730;2023-04-24T06:53:16;12.63;;;8.77;;
27618;SDS011;15039;50.830;4.730;2023-04-24T06:55:45;13.02;;;8.80;;
27618;SDS011;15039;50.830;4.730;2023-04-24T06:58:20;12.90;;;8.73;;
27618;SDS011;15039;50.830;4.730;2023-04-24T07:03:28;12.20;;;8.55;;
27618;SDS011;15039;50.830;4.730;2023-04-24T07:05:55;13.45;;;9.50;;
27618;SDS011;15039;50.830;4.730;2023-04-24T07:08:22;15.32;;;9.73;;
27618;SDS011;15039;50.830;4.730;2023-04-24T07:10:49;14.63;;;9.40;;
27618;SDS011;15039;50.830;4.730;2023-04-24T07:13:25;15.00;;;10.03;;
27618;SDS011;15039;50.830;4.730;2023-04-24T07:18:40;17.25;;;10.43;;
27618;SDS011;15039;50.830;4.730;2023-04-24T07:21:13;14.02;;;10.52;;
27618;SDS011;15039;50.830;4.730;2023-04-24T07:23:55;14.57;;;11.27;;
27618;SDS011;15039;50.830;4.730;2023-04-24T07:26:30;14.98;;;9.98;;
27618;SDS011;15039;50.830;4.730;2023-04-24T07:29:29;17.08;;;11.50;;
27618;SDS011;15039;50.830;4.730;2023-04-24T07:32:19;18.08;;;10.80;;
27618;SDS011;15039;50.830;4.730;2023-04-24T07:34:55;16.00;;;10.27;;
27618;SDS011;15039;50.830;4.730;2023-04-24T07:37:29;16.92;;;9.90;;
27618;SDS011;15039;50.830;4.730;2023-04-24T07:39:57;15.05;;;9.52;;
27618;SDS011;15039;50.830;4.730;2023-04-24T07:42:23;14.20;;;9.52;;
27618;SDS011;15039;50.830;4.730;2023-04-24T07:44:52;17.52;;;10.25;;
27618;SDS011;15039;50.830;4.730;2023-04-24T07:47:32;17.20;;;9.77;;
27618;SDS011;15039;50.830;4.730;2023-04-24T07:50:05;16.48;;;9.65;;
27618;SDS011;15039;50.830;4.730;2023-04-24T07:52:32;11.10;;;8.95;;
27618;SDS011;15039;50.830;4.730;2023-04-24T07:55:06;16.08;;;8.38;;
27618;SDS011;15039;50.830;4.730;2023-04-24T07:57:36;15.40;;;8.55;;
27618;SDS011;15039;50.830;4.730;2023-04-24T08:00:29;13.20;;;8.27;;
27618;SDS011;15039;50.830;4.730;2023-04-24T08:02:57;14.10;;;8.23;;
27618;SDS011;15039;50.830;4.730;2023-04-24T08:05:25;10.88;;;7.43;;
27618;SDS011;15039;50.830;4.730;2023-04-24T08:07:54;10.95;;;7.97;;
27618;SDS011;15039;50.830;4.730;2023-04-24T08:10:22;11.57;;;7.57;;
27618;SDS011;15039;50.830;4.730;2023-04-24T08:12:50;13.27;;;7.03;;
27618;SDS011;15039;50.830;4.730;2023-04-24T08:15:16;11.85;;;6.88;;
27618;SDS011;15039;50.830;4.730;2023-04-24T08:17:51;13.05;;;6.20;;
27618;SDS011;15039;50.830;4.730;2023-04-24T08:20:18;10.32;;;5.60;;
27618;SDS011;15039;50.830;4.730;2023-04-24T08:23:02;7.70;;;5.55;;
27618;SDS011;15039;50.830;4.730;2023-04-24T08:25:30;8.60;;;4.60;;
27618;SDS011;15039;50.830;4.730;2023-04-24T08:28:07;6.93;;;4.45;;
27618;SDS011;15039;50.830;4.730;2023-04-24T08:30:35;8.80;;;5.15;;
27618;SDS011;15039;50.830;4.730;2023-04-24T08:33:03;7.47;;;4.20;;
27618;SDS011;15039;50.830;4.730;2023-04-24T08:35:34;8.80;;;4.40;;
27618;SDS011;15039;50.830;4.730;2023-04-24T08:38:03;7.55;;;5.35;;
27618;SDS011;15039;50.830;4.730;2023-04-24T08:40:30;7.22;;;4.57;;
27618;SDS011;15039;50.830;4.730;2023-04-24T08:43:00;19.85;;;6.20;;
27618;SDS011;15039;50.830;4.730;2023-04-24T08:45:26;22.90;;;7.15;;
27618;SDS011;15039;50.830;4.730;2023-04-24T08:47:53;7.20;;;4.88;;
27618;SDS011;15039;50.830;4.730;2023-04-24T08:50:20;8.10;;;5.40;;
27618;SDS011;15039;50.830;4.730;2023-04-24T08:52:50;10.73;;;4.63;;
27618;SDS011;15039;50.830;4.730;2023-04-24T08:55:18;17.05;;;6.15;;
27618;SDS011;15039;50.830;4.730;2023-04-24T08:57:48;15.38;;;4.90;;
27618;SDS011;15039;50.830;4.730;2023-04-24T09:00:17;6.93;;;4.32;;
27618;SDS011;15039;50.830;4.730;2023-04-24T09:02:44;9.38;;;4.35;;
27618;SDS011;15039;50.830;4.730;2023-04-24T09:05:13;8.55;;;4.35;;
27618;SDS011;15039;50.830;4.730;2023-04-24T09:07:49;9.27;;;4.60;;
27618;SDS011;15039;50.830;4.730;2023-04-24T09:10:25;8.77;;;4.05;;
27618;SDS011;15039;50.830;4.730;2023-04-24T09:13:00;7.35;;;3.90;;
27618;SDS011;15039;50.830;4.730;2023-04-24T09:15:28;9.95;;;3.67;;
27618;SDS011;15039;50.830;4.730;2023-04-24T09:17:55;7.70;;;3.20;;
27618;SDS011;15039;50.830;4.730;2023-04-24T09:20:27;7.93;;;3.67;;
27618;SDS011;15039;50.830;4.730;2023-04-24T09:22:53;6.32;;;3.38;;
27618;SDS011;15039;50.830;4.730;2023-04-24T09:25:33;7.40;;;3.70;;
27618;SDS011;15039;50.830;4.730;2023-04-24T09:28:17;8.40;;;3.55;;
27618;SDS011;15039;50.830;4.730;2023-04-24T09:31:14;7.45;;;3.05;;
27618;SDS011;15039;50.830;4.730;2023-04-24T09:33:53;6.20;;;3.00;;
27618;SDS011;15039;50.830;4.730;2023-04-24T09:36:35;5.47;;;2.83;;
27618;SDS011;15039;50.830;4.730;2023-04-24T09:39:07;5.55;;;2.70;;
27618;SDS011;15039;50.830;4.730;2023-04-24T09:44:16;5.18;;;2.63;;
27618;SDS011;15039;50.830;4.730;2023-04-24T09:46:48;5.15;;;2.45;;
27618;SDS011;15039;50.830;4.730;2023-04-24T09:49:16;7.82;;;3.05;;
27618;SDS011;15039;50.830;4.730;2023-04-24T09:51:48;5.88;;;2.55;;
27618;SDS011;15039;50.830;4.730;2023-04-24T09:54:14;4.38;;;2.53;;
27618;SDS011;15039;50.830;4.730;2023-04-24T09:56:50;4.78;;;2.83;;
27618;SDS011;15039;50.830;4.730;2023-04-24T09:59:19;6.47;;;2.63;;
27618;SDS011;15039;50.830;4.730;2023-04-24T10:01:51;4.30;;;2.47;;
27618;SDS011;15039;50.830;4.730;2023-04-24T10:04:23;5.47;;;2.58;;
27618;SDS011;15039;50.830;4.730;2023-04-24T10:06:56;6.85;;;3.25;;
27618;SDS011;15039;50.830;4.730;2023-04-24T10:09:28;5.13;;;2.33;;
27618;SDS011;15039;50.830;4.730;2023-04-24T10:11:55;7.07;;;2.50;;
27618;SDS011;15039;50.830;4.730;2023-04-24T10:14:23;5.80;;;2.33;;
27618;SDS011;15039;50.830;4.730;2023-04-24T10:16:52;3.57;;;2.30;;
27618;SDS011;15039;50.830;4.730;2023-04-24T10:19:19;6.40;;;2.60;;
27618;SDS011;15039;50.830;4.730;2023-04-24T10:21:47;7.45;;;2.50;;
27618;SDS011;15039;50.830;4.730;2023-04-24T10:24:15;5.55;;;2.80;;
27618;SDS011;15039;50.830;4.730;2023-04-24T10:26:50;5.18;;;2.42;;
27618;SDS011;15039;50.830;4.730;2023-04-24T10:29:18;5.70;;;2.40;;
27618;SDS011;15039;50.830;4.730;2023-04-24T10:32:02;6.40;;;2.30;;
27618;SDS011;15039;50.830;4.730;2023-04-24T10:37:40;6.88;;;2.08;;
27618;SDS011;15039;50.830;4.730;2023-04-24T10:40:17;6.70;;;2.17;;
27618;SDS011;15039;50.830;4.730;2023-04-24T10:42:56;3.90;;;2.22;;
27618;SDS011;15039;50.830;4.730;2023-04-24T10:45:27;4.00;;;2.65;;
27618;SDS011;15039;50.830;4.730;2023-04-24T10:50:38;2.72;;;1.90;;
27618;SDS011;15039;50.830;4.730;2023-04-24T10:53:16;4.15;;;2.50;;
27618;SDS011;15039;50.830;4.730;2023-04-24T11:01:31;3.97;;;2.55;;
27618;SDS011;15039;50.830;4.730;2023-04-24T11:03:59;4.80;;;2.50;;
27618;SDS011;15039;50.830;4.730;2023-04-24T11:06:32;4.05;;;2.25;;
27618;SDS011;15039;50.830;4.730;2023-04-24T11:11:44;4.00;;;2.38;;
27618;SDS011;15039;50.830;4.730;2023-04-24T11:14:15;4.32;;;2.60;;
27618;SDS011;15039;50.830;4.730;2023-04-24T11:19:28;5.03;;;2.58;;
27618;SDS011;15039;50.830;4.730;2023-04-24T11:24:26;5.70;;;2.78;;
27618;SDS011;15039;50.830;4.730;2023-04-24T11:27:31;5.00;;;2.28;;
27618;SDS011;15039;50.830;4.730;2023-04-24T11:30:09;5.55;;;2.85;;
27618;SDS011;15039;50.830;4.730;2023-04-24T11:32:37;3.08;;;2.13;;
27618;SDS011;15039;50.830;4.730;2023-04-24T11:35:16;6.47;;;3.33;;
27618;SDS011;15039;50.830;4.730;2023-04-24T11:37:50;4.25;;;2.60;;
27618;SDS011;15039;50.830;4.730;2023-04-24T11:40:23;5.20;;;2.47;;
27618;SDS011;15039;50.830;4.730;2023-04-24T11:42:59;3.80;;;2.70;;
27618;SDS011;15039;50.830;4.730;2023-04-24T11:45:36;5.18;;;2.75;;
27618;SDS011;15039;50.830;4.730;2023-04-24T11:48:02;5.57;;;2.63;;
27618;SDS011;15039;50.830;4.730;2023-04-24T11:52:59;7.00;;;2.67;;
27618;SDS011;15039;50.830;4.730;2023-04-24T11:57:56;6.00;;;2.33;;
27618;SDS011;15039;50.830;4.730;2023-04-24T12:02:52;4.32;;;2.28;;
27618;SDS011;15039;50.830;4.730;2023-04-24T12:05:35;4.95;;;2.20;;
27618;SDS011;15039;50.830;4.730;2023-04-24T12:08:00;3.60;;;2.20;;
27618;SDS011;15039;50.830;4.730;2023-04-24T12:10:32;4.43;;;2.72;;
27618;SDS011;15039;50.830;4.730;2023-04-24T12:12:59;6.93;;;2.85;;
27618;SDS011;15039;50.830;4.730;2023-04-24T12:15:25;4.47;;;2.60;;
27618;SDS011;15039;50.830;4.730;2023-04-24T12:17:52;30.85;;;5.53;;
27618;SDS011;15039;50.830;4.730;2023-04-24T12:20:23;24.35;;;5.50;;
27618;SDS011;15039;50.830;4.730;2023-04-24T12:22:51;5.43;;;2.70;;
27618;SDS011;15039;50.830;4.730;2023-04-24T12:25:19;4.25;;;2.83;;
27618;SDS011;15039;50.830;4.730;2023-04-24T12:27:51;5.57;;;2.83;;
27618;SDS011;15039;50.830;4.730;2023-04-24T12:30:21;3.45;;;2.55;;
27618;SDS011;15039;50.830;4.730;2023-04-24T12:32:52;3.67;;;2.20;;
27618;SDS011;15039;50.830;4.730;2023-04-24T12:35:20;20.10;;;4.00;;
27618;SDS011;15039;50.830;4.730;2023-04-24T12:37:47;4.72;;;2.55;;
27618;SDS011;15039;50.830;4.730;2023-04-24T12:40:14;7.25;;;2.72;;
27618;SDS011;15039;50.830;4.730;2023-04-24T12:42:50;3.78;;;2.90;;
27618;SDS011;15039;50.830;4.730;2023-04-24T12:45:18;5.05;;;2.70;;
27618;SDS011;15039;50.830;4.730;2023-04-24T12:47:44;4.78;;;2.60;;
27618;SDS011;15039;50.830;4.730;2023-04-24T12:50:11;5.47;;;2.97;;
27618;SDS011;15039;50.830;4.730;2023-04-24T12:52:39;4.97;;;2.70;;
27618;SDS011;15039;50.830;4.730;2023-04-24T12:55:06;2.92;;;2.58;;
27618;SDS011;15039;50.830;4.730;2023-04-24T12:57:36;3.83;;;3.40;;
27618;SDS011;15039;50.830;4.730;2023-04-24T13:00:02;2.60;;;2.20;;
27618;SDS011;15039;50.830;4.730;2023-04-24T13:02:29;2.97;;;1.92;;
27618;SDS011;15039;50.830;4.730;2023-04-24T13:04:56;2.95;;;2.00;;
27618;SDS011;15039;50.830;4.730;2023-04-24T13:07:23;2.72;;;2.10;;
27618;SDS011;15039;50.830;4.730;2023-04-24T13:09:51;4.45;;;2.20;;
27618;SDS011;15039;50.830;4.730;2023-04-24T13:12:17;2.65;;;2.20;;
27618;SDS011;15039;50.830;4.730;2023-04-24T13:14:45;3.60;;;2.78;;
27618;SDS011;15039;50.830;4.730;2023-04-24T13:17:11;5.30;;;2.22;;
27618;SDS011;15039;50.830;4.730;2023-04-24T13:19:41;3.92;;;2.33;;
27618;SDS011;15039;50.830;4.730;2023-04-24T13:22:10;3.20;;;2.55;;
27618;SDS011;15039;50.830;4.730;2023-04-24T13:24:37;5.88;;;2.35;;
27618;SDS011;15039;50.830;4.730;2023-04-24T13:27:04;10.23;;;2.72;;
27618;SDS011;15039;50.830;4.730;2023-04-24T13:29:31;2.65;;;1.98;;
27618;SDS011;15039;50.830;4.730;2023-04-24T13:31:56;2.90;;;2.15;;
27618;SDS011;15039;50.830;4.730;2023-04-24T13:34:23;1.98;;;1.77;;
27618;SDS011;15039;50.830;4.730;2023-04-24T13:36:50;3.05;;;2.13;;
27618;SDS011;15039;50.830;4.730;2023-04-24T13:39:17;4.13;;;2.20;;
27618;SDS011;15039;50.830;4.730;2023-04-24T13:41:43;2.95;;;1.63;;
27618;SDS011;15039;50.830;4.730;2023-04-24T13:44:12;4.88;;;1.80;;
27618;SDS011;15039;50.830;4.730;2023-04-24T13:46:37;6.30;;;2.00;;
27618;SDS011;15039;50.830;4.730;2023-04-24T13:49:03;2.55;;;1.90;;
27618;SDS011;15039;50.830;4.730;2023-04-24T13:51:29;4.22;;;2.03;;
27618;SDS011;15039;50.830;4.730;2023-04-24T13:53:55;2.67;;;1.92;;
27618;SDS011;15039;50.830;4.730;2023-04-24T13:56:20;2.55;;;1.40;;
27618;SDS011;15039;50.830;4.730;2023-04-24T13:58:47;2.75;;;1.83;;
27618;SDS011;15039;50.830;4.730;2023-04-24T14:01:14;2.28;;;1.77;;
27618;SDS011;15039;50.830;4.730;2023-04-24T14:03:40;3.00;;;1.63;;
27618;SDS011;15039;50.830;4.730;2023-04-24T14:06:07;2.35;;;1.80;;
27618;SDS011;15039;50.830;4.730;2023-04-24T14:08:32;5.80;;;2.22;;
27618;SDS011;15039;50.830;4.730;2023-04-24T14:10:59;2.90;;;1.55;;
27618;SDS011;15039;50.830;4.730;2023-04-24T14:13:24;3.35;;;1.70;;
27618;SDS011;15039;50.830;4.730;2023-04-24T14:15:50;2.10;;;1.50;;
27618;SDS011;15039;50.830;4.730;2023-04-24T14:18:17;3.47;;;1.75;;
27618;SDS011;15039;50.830;4.730;2023-04-24T14:20:43;4.80;;;1.73;;
27618;SDS011;15039;50.830;4.730;2023-04-24T14:23:09;3.50;;;1.52;;
27618;SDS011;15039;50.830;4.730;2023-04-24T14:25:35;5.22;;;1.80;;
27618;SDS011;15039;50.830;4.730;2023-04-24T14:28:01;3.40;;;1.63;;
27618;SDS011;15039;50.830;4.730;2023-04-24T14:30:26;5.05;;;2.00;;
27618;SDS011;15039;50.830;4.730;2023-04-24T14:32:52;3.30;;;1.95;;
27618;SDS011;15039;50.830;4.730;2023-04-24T14:35:19;5.13;;;1.88;;
27618;SDS011;15039;50.830;4.730;2023-04-24T14:37:44;5.28;;;2.10;;
27618;SDS011;15039;50.830;4.730;2023-04-24T14:40:11;3.35;;;1.65;;
27618;SDS011;15039;50.830;4.730;2023-04-24T14:42:36;3.97;;;1.55;;
27618;SDS011;15039;50.830;4.730;2023-04-24T14:45:02;4.53;;;1.65;;
27618;SDS011;15039;50.830;4.730;2023-04-24T14:47:28;3.38;;;1.73;;
27618;SDS011;15039;50.830;4.730;2023-04-24T14:49:56;2.85;;;1.77;;
27618;SDS011;15039;50.830;4.730;2023-04-24T14:52:23;3.28;;;1.42;;
27618;SDS011;15039;50.830;4.730;2023-04-24T14:54:49;3.22;;;1.58;;
27618;SDS011;15039;50.830;4.730;2023-04-24T14:57:15;2.38;;;1.42;;
27618;SDS011;15039;50.830;4.730;2023-04-24T14:59:40;3.22;;;1.38;;
27618;SDS011;15039;50.830;4.730;2023-04-24T15:02:06;2.50;;;1.65;;
27618;SDS011;15039;50.830;4.730;2023-04-24T15:04:31;2.85;;;1.30;;
27618;SDS011;15039;50.830;4.730;2023-04-24T15:06:57;4.38;;;1.65;;
27618;SDS011;15039;50.830;4.730;2023-04-24T15:09:23;5.28;;;1.48;;
27618;SDS011;15039;50.830;4.730;2023-04-24T15:11:50;1.92;;;1.10;;
27618;SDS011;15039;50.830;4.730;2023-04-24T15:14:16;3.33;;;1.50;;
27618;SDS011;15039;50.830;4.730;2023-04-24T15:16:43;3.67;;;1.75;;
27618;SDS011;15039;50.830;4.730;2023-04-24T15:19:09;5.30;;;1.40;;
27618;SDS011;15039;50.830;4.730;2023-04-24T15:21:35;2.30;;;1.50;;
27618;SDS011;15039;50.830;4.730;2023-04-24T15:24:02;5.32;;;2.05;;
27618;SDS011;15039;50.830;4.730;2023-04-24T15:26:29;3.15;;;1.80;;
27618;SDS011;15039;50.830;4.730;2023-04-24T15:28:54;2.42;;;1.30;;
27618;SDS011;15039;50.830;4.730;2023-04-24T15:31:20;3.00;;;1.30;;